createdAt,value
2022-08-02T00:01:42.263Z,19.80
2022-08-02T00:04:10.131Z,19.90
2022-08-02T00:06:38.287Z,19.90
2022-08-02T00:09:06.030Z,19.90
2022-08-02T00:11:33.173Z,19.90
2022-08-02T00:14:00.433Z,19.90
2022-08-02T00:16:37.988Z,19.90
2022-08-02T00:19:05.598Z,20.00
2022-08-02T00:21:32.566Z,19.90
2022-08-02T00:24:27.793Z,20.00
2022-08-02T00:26:46.607Z,20.00
2022-08-02T00:29:13.546Z,20.00
2022-08-02T00:31:40.511Z,20.00
2022-08-02T00:34:28.347Z,20.00
2022-08-02T00:36:54.541Z,20.00
2022-08-02T00:39:34.429Z,20.00
2022-08-02T00:42:03.842Z,20.00
2022-08-02T00:44:30.949Z,20.00
2022-08-02T00:46:57.859Z,20.00
2022-08-02T00:49:24.864Z,20.00
2022-08-02T00:51:52.539Z,19.90
2022-08-02T00:54:20.073Z,19.90
2022-08-02T00:56:49.707Z,19.90
2022-08-02T00:59:18.780Z,19.90
2022-08-02T01:01:56.406Z,19.90
2022-08-02T01:04:30.230Z,19.90
2022-08-02T01:06:57.733Z,19.90
2022-08-02T01:09:24.691Z,19.90
2022-08-02T01:11:51.623Z,19.90
2022-08-02T01:14:19.334Z,19.90
2022-08-02T01:16:58.521Z,19.90
2022-08-02T01:20:08.898Z,20.00
2022-08-02T01:23:04.049Z,20.00
2022-08-02T01:25:48.783Z,20.00
2022-08-02T01:28:47.417Z,20.00
2022-08-02T01:32:18.814Z,20.00
2022-08-02T01:34:54.291Z,20.00
2022-08-02T01:37:53.478Z,20.00
2022-08-02T01:40:30.420Z,20.00
2022-08-02T01:42:59.647Z,20.00
2022-08-02T01:45:35.351Z,20.00
2022-08-02T01:48:03.733Z,20.00
2022-08-02T01:50:36.696Z,20.00
2022-08-02T01:53:09.184Z,19.90
2022-08-02T01:56:01.593Z,19.90
2022-08-02T01:58:36.246Z,19.90
2022-08-02T02:01:07.771Z,20.00
2022-08-02T02:03:41.527Z,20.00
2022-08-02T02:06:12.154Z,20.00
2022-08-02T02:08:42.339Z,19.90
2022-08-02T02:12:06.257Z,19.90
2022-08-02T02:14:01.995Z,19.90
2022-08-02T02:16:30.448Z,19.90
2022-08-02T02:19:01.730Z,19.90
2022-08-02T02:21:29.328Z,19.90
2022-08-02T02:23:59.623Z,19.80
2022-08-02T02:26:31.930Z,19.80
2022-08-02T02:29:04.000Z,19.80
2022-08-02T02:31:37.777Z,19.80
2022-08-02T02:34:16.825Z,19.80
2022-08-02T02:36:50.618Z,19.80
2022-08-02T02:39:22.781Z,19.80
2022-08-02T02:41:53.230Z,19.80
2022-08-02T02:44:22.615Z,19.80
2022-08-02T02:46:54.707Z,19.80
2022-08-02T02:49:23.404Z,19.80
2022-08-02T02:51:51.773Z,19.80
2022-08-02T02:54:33.515Z,19.90
2022-08-02T02:57:05.468Z,19.90
2022-08-02T02:59:35.470Z,19.90
2022-08-02T03:02:04.750Z,19.90
2022-08-02T03:04:55.482Z,19.90
2022-08-02T03:07:21.010Z,20.00
2022-08-02T03:09:53.711Z,20.00
2022-08-02T03:12:25.759Z,20.00
2022-08-02T03:14:58.519Z,20.00
2022-08-02T03:17:25.461Z,20.10
2022-08-02T03:19:52.312Z,20.10
2022-08-02T03:22:19.159Z,20.10
2022-08-02T03:24:46.067Z,20.10
2022-08-02T03:27:12.861Z,20.10
2022-08-02T03:29:39.689Z,20.10
2022-08-02T03:32:06.769Z,20.00
2022-08-02T03:34:33.710Z,20.00
2022-08-02T03:37:02.400Z,20.00
2022-08-02T03:39:29.635Z,20.00
2022-08-02T03:41:57.149Z,20.00
2022-08-02T03:44:25.657Z,20.00
2022-08-02T03:46:53.798Z,20.10
2022-08-02T03:49:21.686Z,20.00
2022-08-02T03:51:49.424Z,20.00
2022-08-02T03:54:18.865Z,20.00
2022-08-02T03:56:46.672Z,20.00
2022-08-02T03:59:15.198Z,20.00
2022-08-02T04:01:42.557Z,20.00
2022-08-02T04:04:09.893Z,20.00
2022-08-02T04:06:39.891Z,20.00
2022-08-02T04:09:09.303Z,20.00
2022-08-02T04:11:37.753Z,20.00
2022-08-02T04:14:11.601Z,20.00
2022-08-02T04:16:52.570Z,20.00
2022-08-02T04:19:32.524Z,20.00
2022-08-02T04:22:04.882Z,20.00
2022-08-02T04:24:41.295Z,20.00
2022-08-02T04:27:48.914Z,20.10
2022-08-02T04:30:00.197Z,20.10
2022-08-02T04:32:27.974Z,20.20
2022-08-02T04:35:18.065Z,20.20
2022-08-02T04:38:08.600Z,20.20
2022-08-02T04:40:31.184Z,20.30
2022-08-02T04:42:58.083Z,20.30
2022-08-02T04:45:26.876Z,20.40
2022-08-02T04:48:03.559Z,20.40
2022-08-02T04:50:31.172Z,20.40
2022-08-02T04:52:58.099Z,20.50
2022-08-02T04:55:28.698Z,20.50
2022-08-02T04:57:57.833Z,20.60
2022-08-02T05:00:27.663Z,20.60
2022-08-02T05:02:59.918Z,20.70
2022-08-02T05:05:27.422Z,20.70
2022-08-02T05:07:54.439Z,20.80
2022-08-02T05:10:21.458Z,20.80
2022-08-02T05:12:48.310Z,20.90
2022-08-02T05:15:18.030Z,20.90
2022-08-02T05:17:47.698Z,20.90
2022-08-02T05:20:19.729Z,20.90
2022-08-02T05:22:47.318Z,21.00
2022-08-02T05:25:14.992Z,21.00
2022-08-02T05:27:41.956Z,21.00
2022-08-02T05:30:10.086Z,21.00
2022-08-02T05:32:48.518Z,21.00
2022-08-02T05:35:23.289Z,21.00
2022-08-02T05:37:51.968Z,21.00
2022-08-02T05:40:25.751Z,21.00
2022-08-02T05:42:54.341Z,21.10
2022-08-02T05:45:21.619Z,21.20
2022-08-02T05:47:48.489Z,21.30
2022-08-02T05:50:15.367Z,21.30
2022-08-02T05:53:06.814Z,21.40
2022-08-02T05:55:40.329Z,21.40
2022-08-02T05:58:20.893Z,21.50
2022-08-02T06:00:50.928Z,21.50
2022-08-02T06:03:39.294Z,21.60
2022-08-02T06:06:14.232Z,21.70
2022-08-02T06:08:50.377Z,21.70
2022-08-02T06:11:22.365Z,21.80
2022-08-02T06:13:50.919Z,21.90
2022-08-02T06:16:31.805Z,22.00
2022-08-02T06:19:01.439Z,22.00
2022-08-02T06:22:42.028Z,22.10
2022-08-02T06:24:19.965Z,22.20
2022-08-02T06:26:52.687Z,22.20
2022-08-02T06:29:21.505Z,22.20
2022-08-02T06:31:53.398Z,22.30
2022-08-02T06:34:20.348Z,22.30
2022-08-02T06:37:12.585Z,22.40
2022-08-02T06:39:48.454Z,22.40
2022-08-02T06:42:27.145Z,22.50
2022-08-02T06:44:57.788Z,22.50
2022-08-02T06:47:26.226Z,22.50
2022-08-02T06:49:54.623Z,22.50
2022-08-02T06:52:31.579Z,22.60
2022-08-02T06:55:01.956Z,22.70
2022-08-02T06:57:30.306Z,22.70
2022-08-02T06:59:58.438Z,22.80
2022-08-02T07:02:25.647Z,22.90
2022-08-02T07:04:52.641Z,22.90
2022-08-02T07:07:19.859Z,23.00
2022-08-02T07:10:00.275Z,23.10
2022-08-02T07:12:31.746Z,23.20
2022-08-02T07:15:06.253Z,23.30
2022-08-02T07:17:34.436Z,23.40
2022-08-02T07:20:01.851Z,23.50
2022-08-02T07:22:29.296Z,23.60
2022-08-02T07:24:59.765Z,23.70
2022-08-02T07:27:28.204Z,23.80
2022-08-02T07:29:55.808Z,23.90
2022-08-02T07:32:26.928Z,23.90
2022-08-02T07:34:55.750Z,24.10
2022-08-02T07:37:54.296Z,24.20
2022-08-02T07:40:20.369Z,24.30
2022-08-02T07:42:51.925Z,24.40
2022-08-02T07:45:22.601Z,24.50
2022-08-02T07:47:50.465Z,24.60
2022-08-02T07:50:20.587Z,24.70
2022-08-02T07:52:48.143Z,24.80
2022-08-02T07:55:18.137Z,24.80
2022-08-02T07:57:47.124Z,24.90
2022-08-02T08:00:18.895Z,25.00
2022-08-02T08:02:47.244Z,25.20
2022-08-02T08:05:14.594Z,25.30
2022-08-02T08:07:41.710Z,25.40
2022-08-02T08:10:09.502Z,25.50
2022-08-02T08:12:36.527Z,25.70
2022-08-02T08:15:04.646Z,25.80
2022-08-02T08:17:31.514Z,25.90
2022-08-02T08:19:58.355Z,26.00
2022-08-02T08:22:25.264Z,26.10
2022-08-02T08:24:52.173Z,26.30
2022-08-02T08:27:22.474Z,26.30
2022-08-02T08:29:50.339Z,26.50
2022-08-02T08:32:18.728Z,26.60
2022-08-02T08:34:47.050Z,26.70
2022-08-02T08:37:16.755Z,27.00
2022-08-02T08:39:57.998Z,27.20
2022-08-02T08:42:31.364Z,27.40
2022-08-02T08:44:59.862Z,27.70
2022-08-02T08:47:42.693Z,27.80
2022-08-02T08:50:24.088Z,28.10
2022-08-02T08:53:06.985Z,28.20
2022-08-02T08:55:37.260Z,28.40
2022-08-02T08:58:05.870Z,28.40
2022-08-02T09:00:36.004Z,28.40
2022-08-02T09:03:05.465Z,28.50
2022-08-02T09:05:36.739Z,28.60
2022-08-02T09:08:04.862Z,28.90
2022-08-02T09:10:36.031Z,29.20
2022-08-02T09:13:45.796Z,29.50
2022-08-02T09:16:14.728Z,29.80
2022-08-02T09:18:47.449Z,30.40
2022-08-02T09:21:17.033Z,30.90
2022-08-02T09:23:53.045Z,31.40
2022-08-02T09:26:23.356Z,32.00
2022-08-02T09:28:59.539Z,32.30
2022-08-02T09:31:26.608Z,32.50
2022-08-02T09:34:02.657Z,32.40
2022-08-02T09:36:42.964Z,32.40
2022-08-02T09:39:15.431Z,32.60
2022-08-02T09:41:45.391Z,32.80
2022-08-02T09:44:16.471Z,33.00
2022-08-02T09:46:46.316Z,33.30
2022-08-02T09:49:18.917Z,33.60
2022-08-02T09:51:46.627Z,33.80
2022-08-02T09:54:27.646Z,34.10
2022-08-02T09:57:00.873Z,34.40
2022-08-02T09:59:29.303Z,34.80
2022-08-02T10:02:02.444Z,35.20
2022-08-02T10:04:34.401Z,35.40
2022-08-02T10:07:21.782Z,35.40
2022-08-02T10:09:51.092Z,35.20
2022-08-02T10:12:20.228Z,35.00
2022-08-02T10:14:51.967Z,34.60
2022-08-02T10:17:21.205Z,34.10
2022-08-02T10:20:02.999Z,33.80
2022-08-02T10:22:33.882Z,33.80
2022-08-02T10:25:04.428Z,34.10
2022-08-02T10:27:49.202Z,34.30
2022-08-02T10:30:24.443Z,34.50
2022-08-02T10:32:53.999Z,34.70
2022-08-02T10:35:25.712Z,35.00
2022-08-02T10:37:57.966Z,35.30
2022-08-02T10:40:26.836Z,35.70
2022-08-02T10:43:01.420Z,36.00
2022-08-02T10:45:29.269Z,36.30
2022-08-02T10:48:14.628Z,36.70
2022-08-02T10:50:48.069Z,37.10
2022-08-02T10:53:32.164Z,37.50
2022-08-02T10:56:03.069Z,37.90
2022-08-02T10:58:32.829Z,38.30
2022-08-02T11:01:06.324Z,38.70
2022-08-02T11:03:39.723Z,38.60
2022-08-02T11:06:25.349Z,38.20
2022-08-02T11:09:32.817Z,37.60
2022-08-02T11:12:20.177Z,37.10
2022-08-02T11:15:01.475Z,37.00
2022-08-02T11:17:37.965Z,37.10
2022-08-02T11:20:11.000Z,37.50
2022-08-02T11:22:43.012Z,37.70
2022-08-02T11:25:22.071Z,37.70
2022-08-02T11:27:49.691Z,37.50
2022-08-02T11:30:17.474Z,37.10
2022-08-02T11:32:44.463Z,36.70
2022-08-02T11:35:11.850Z,36.20
2022-08-02T11:37:43.021Z,35.70
2022-08-02T11:40:19.526Z,35.10
2022-08-02T11:42:51.259Z,34.70
2022-08-02T11:45:28.837Z,34.10
2022-08-02T11:47:56.632Z,33.60
2022-08-02T11:50:29.878Z,33.20
2022-08-02T11:52:57.787Z,32.80
2022-08-02T11:55:32.336Z,32.40
2022-08-02T11:58:06.067Z,32.10
2022-08-02T12:00:33.796Z,31.80
2022-08-02T12:03:01.298Z,31.50
2022-08-02T12:06:03.869Z,31.30
2022-08-02T12:08:18.996Z,31.20
2022-08-02T12:10:50.627Z,31.00
2022-08-02T12:13:17.560Z,30.90
2022-08-02T12:15:46.250Z,30.80
2022-08-02T12:18:37.496Z,30.70
2022-08-02T12:21:22.493Z,30.50
2022-08-02T12:24:00.687Z,30.40
2022-08-02T12:26:29.840Z,30.40
2022-08-02T12:29:01.333Z,30.40
2022-08-02T12:31:57.170Z,30.50
2022-08-02T12:34:31.874Z,30.50
2022-08-02T12:37:10.829Z,30.60
2022-08-02T12:39:46.262Z,30.70
2022-08-02T12:44:58.658Z,30.80
2022-08-02T12:47:35.650Z,30.80
2022-08-02T12:50:32.537Z,30.80
2022-08-02T12:53:16.657Z,30.80
2022-08-02T12:56:01.307Z,30.80
2022-08-02T12:58:48.108Z,30.80
2022-08-02T13:01:23.777Z,30.80
2022-08-02T13:04:10.628Z,30.70
2022-08-02T13:06:44.170Z,30.70
2022-08-02T13:09:15.540Z,30.70
2022-08-02T13:11:43.978Z,30.70
2022-08-02T13:14:13.134Z,30.80
2022-08-02T13:16:42.365Z,30.90
2022-08-02T13:19:09.848Z,31.00
2022-08-02T13:21:40.752Z,31.10
2022-08-02T13:24:39.238Z,31.20
2022-08-02T13:27:10.556Z,31.40
2022-08-02T13:29:38.289Z,31.60
2022-08-02T13:32:05.959Z,31.80
2022-08-02T13:34:33.012Z,32.00
2022-08-02T13:37:00.172Z,32.20
2022-08-02T13:39:27.147Z,32.40
2022-08-02T13:41:55.204Z,32.60
2022-08-02T13:44:22.415Z,32.60
2022-08-02T13:46:49.240Z,32.60
2022-08-02T13:49:19.998Z,32.60
2022-08-02T13:51:49.074Z,32.90
2022-08-02T13:54:16.590Z,33.30
2022-08-02T13:56:43.840Z,33.80
2022-08-02T13:59:53.938Z,34.50
2022-08-02T14:01:59.192Z,35.00
2022-08-02T14:04:27.094Z,35.60
2022-08-02T14:06:54.743Z,36.10
2022-08-02T14:09:26.503Z,36.60
2022-08-02T14:11:53.723Z,37.10
2022-08-02T14:14:20.738Z,37.50
2022-08-02T14:16:47.854Z,38.00
2022-08-02T14:19:16.386Z,38.50
2022-08-02T14:21:51.622Z,39.10
2022-08-02T14:24:21.192Z,39.80
2022-08-02T14:26:50.487Z,40.10
2022-08-02T14:29:18.264Z,40.30
2022-08-02T14:31:45.374Z,40.80
2022-08-02T14:34:13.815Z,41.40
2022-08-02T14:36:40.988Z,42.00
2022-08-02T14:39:08.344Z,42.60
2022-08-02T14:41:58.388Z,43.20
2022-08-02T14:44:24.138Z,43.90
2022-08-02T14:46:51.681Z,44.60
2022-08-02T14:49:25.972Z,45.00
2022-08-02T14:51:57.126Z,45.50
2022-08-02T14:54:30.459Z,45.80
2022-08-02T14:57:03.694Z,45.90
2022-08-02T14:59:31.204Z,45.90
2022-08-02T15:01:59.570Z,45.80
2022-08-02T15:04:27.598Z,45.80
2022-08-02T15:06:55.123Z,45.60
2022-08-02T15:09:22.427Z,45.60
2022-08-02T15:11:49.824Z,45.50
2022-08-02T15:14:20.379Z,45.50
2022-08-02T15:16:57.457Z,45.30
2022-08-02T15:19:44.923Z,44.80
2022-08-02T15:22:16.923Z,43.90
2022-08-02T15:24:47.863Z,43.10
2022-08-02T15:27:15.968Z,42.60
2022-08-02T15:29:44.524Z,42.10
2022-08-02T15:32:12.677Z,41.90
2022-08-02T15:34:40.491Z,41.70
2022-08-02T15:37:07.551Z,41.60
2022-08-02T15:39:34.539Z,41.60
2022-08-02T15:42:01.569Z,41.60
2022-08-02T15:44:28.681Z,41.90
2022-08-02T15:46:55.962Z,42.10
2022-08-02T15:49:24.418Z,42.20
2022-08-02T15:51:52.681Z,42.10
2022-08-02T15:54:20.277Z,41.90
2022-08-02T15:56:47.251Z,41.70
2022-08-02T15:59:14.372Z,41.50
2022-08-02T16:01:46.707Z,41.20
2022-08-02T16:04:16.436Z,40.70
2022-08-02T16:06:44.189Z,40.40
2022-08-02T16:09:11.664Z,40.30
2022-08-02T16:11:38.965Z,40.40
2022-08-02T16:14:06.649Z,40.60
2022-08-02T16:16:37.143Z,40.70
2022-08-02T16:19:45.908Z,40.80
2022-08-02T16:21:54.088Z,40.60
2022-08-02T16:24:21.987Z,40.40
2022-08-02T16:26:49.514Z,40.40
2022-08-02T16:29:19.138Z,40.60
2022-08-02T16:31:48.125Z,40.90
2022-08-02T16:34:16.509Z,41.10
2022-08-02T16:36:44.060Z,41.30
2022-08-02T16:39:11.633Z,41.40
2022-08-02T16:41:51.146Z,41.50
2022-08-02T16:44:27.577Z,41.60
2022-08-02T16:47:00.891Z,41.70
2022-08-02T16:50:05.182Z,41.70
2022-08-02T16:52:19.491Z,41.70
2022-08-02T16:54:49.552Z,41.80
2022-08-02T16:57:19.902Z,41.80
2022-08-02T16:59:58.026Z,41.70
2022-08-02T17:02:26.740Z,41.50
2022-08-02T17:04:55.080Z,41.20
2022-08-02T17:08:06.387Z,40.90
2022-08-02T17:10:09.975Z,40.50
2022-08-02T17:12:38.476Z,40.00
2022-08-02T17:16:08.768Z,39.60
2022-08-02T17:17:54.887Z,39.20
2022-08-02T17:20:24.244Z,38.80
2022-08-02T17:22:52.409Z,38.60
2022-08-02T17:25:20.090Z,38.30
2022-08-02T17:27:47.068Z,38.10
2022-08-02T17:30:26.644Z,37.90
2022-08-02T17:32:57.630Z,37.50
2022-08-02T17:35:39.981Z,37.10
2022-08-02T17:38:10.542Z,36.70
2022-08-02T17:40:37.394Z,36.20
2022-08-02T17:43:14.430Z,35.80
2022-08-02T17:46:01.831Z,35.30
2022-08-02T17:48:49.476Z,35.00
2022-08-02T17:52:15.142Z,34.50
2022-08-02T17:54:04.257Z,34.10
2022-08-02T17:56:31.613Z,33.70
2022-08-02T17:59:41.782Z,33.40
2022-08-02T18:02:11.068Z,33.00
2022-08-02T18:04:38.522Z,32.70
2022-08-02T18:07:09.881Z,32.40
2022-08-02T18:09:43.265Z,32.20
2022-08-02T18:12:14.441Z,32.00
2022-08-02T18:14:46.192Z,31.80
2022-08-02T18:17:16.674Z,31.70
2022-08-02T18:19:57.442Z,31.50
2022-08-02T18:22:27.025Z,31.40
2022-08-02T18:24:54.572Z,31.30
2022-08-02T18:27:22.176Z,31.20
2022-08-02T18:30:00.211Z,31.10
2022-08-02T18:33:55.896Z,30.90
2022-08-02T18:35:19.687Z,30.80
2022-08-02T18:37:56.687Z,30.70
2022-08-02T18:40:24.419Z,30.50
2022-08-02T18:42:51.301Z,30.30
2022-08-02T18:45:19.410Z,30.20
2022-08-02T18:47:50.727Z,30.10
2022-08-02T18:50:19.871Z,30.00
2022-08-02T18:52:48.079Z,29.80
2022-08-02T18:55:17.211Z,29.70
2022-08-02T18:58:17.081Z,29.50
2022-08-02T19:00:45.174Z,29.40
2022-08-02T19:03:14.406Z,29.20
2022-08-02T19:05:53.230Z,29.10
2022-08-02T19:08:26.379Z,28.90
2022-08-02T19:11:08.319Z,28.80
2022-08-02T19:13:38.148Z,28.70
2022-08-02T19:16:09.252Z,28.60
2022-08-02T19:18:37.658Z,28.50
2022-08-02T19:21:05.544Z,28.40
2022-08-02T19:23:34.404Z,28.40
2022-08-02T19:26:02.482Z,28.20
2022-08-02T19:28:30.869Z,28.10
2022-08-02T19:30:58.290Z,28.10
2022-08-02T19:34:06.414Z,28.00
2022-08-02T19:36:12.750Z,27.90
2022-08-02T19:38:45.401Z,27.80
2022-08-02T19:41:13.691Z,27.70
2022-08-02T19:44:25.453Z,27.70
2022-08-02T19:46:29.882Z,27.60
2022-08-02T19:48:57.015Z,27.50
2022-08-02T19:51:55.343Z,27.40
2022-08-02T19:54:11.042Z,27.30
2022-08-02T19:56:40.434Z,27.20
2022-08-02T19:59:13.079Z,27.20
2022-08-02T20:01:43.525Z,27.10
2022-08-02T20:04:14.102Z,27.00
2022-08-02T20:06:45.194Z,27.00
2022-08-02T20:09:16.657Z,26.90
2022-08-02T20:11:45.677Z,26.80
2022-08-02T20:14:13.374Z,26.70
2022-08-02T20:16:41.633Z,26.70
2022-08-02T20:19:08.895Z,26.60
2022-08-02T20:21:38.216Z,26.50
2022-08-02T20:24:10.777Z,26.40
2022-08-02T20:26:47.892Z,26.40
2022-08-02T20:29:17.532Z,26.30
2022-08-02T20:32:05.794Z,26.20
2022-08-02T20:34:36.247Z,26.20
2022-08-02T20:37:59.651Z,26.10
2022-08-02T20:39:51.853Z,26.10
2022-08-02T20:42:23.496Z,26.00
2022-08-02T20:44:56.207Z,25.90
2022-08-02T20:47:28.429Z,25.90
2022-08-02T20:50:30.704Z,25.80
2022-08-02T20:53:00.998Z,25.80
2022-08-02T20:55:31.037Z,25.70
2022-08-02T20:58:01.334Z,25.60
2022-08-02T21:00:29.656Z,25.60
2022-08-02T21:02:56.637Z,25.60
2022-08-02T21:05:26.904Z,25.50
2022-08-02T21:08:14.096Z,25.40
2022-08-02T21:10:50.247Z,25.30
2022-08-02T21:13:22.423Z,25.30
2022-08-02T21:15:52.074Z,25.30
2022-08-02T21:18:26.549Z,25.20
2022-08-02T21:21:06.998Z,25.10
2022-08-02T21:23:36.798Z,25.10
2022-08-02T21:26:06.739Z,25.00
2022-08-02T21:28:44.919Z,25.00
2022-08-02T21:31:15.606Z,25.00
2022-08-02T21:33:57.986Z,24.90
2022-08-02T21:36:34.014Z,24.90
2022-08-02T21:39:08.871Z,24.80
2022-08-02T21:41:47.086Z,24.80
2022-08-02T21:44:20.057Z,24.70
2022-08-02T21:46:52.831Z,24.70
2022-08-02T21:49:40.994Z,24.70
2022-08-02T21:52:09.118Z,24.50
2022-08-02T21:54:39.981Z,24.50
2022-08-02T21:57:15.570Z,24.50
2022-08-02T21:59:52.761Z,24.50
2022-08-02T22:02:30.937Z,24.40
2022-08-02T22:04:58.464Z,24.40
2022-08-02T22:07:25.588Z,24.30
2022-08-02T22:09:53.523Z,24.20
2022-08-02T22:12:25.148Z,24.20
2022-08-02T22:14:55.783Z,24.10
2022-08-02T22:17:52.107Z,24.10
2022-08-02T22:20:20.192Z,24.00
2022-08-02T22:22:52.567Z,24.00
2022-08-02T22:25:26.803Z,24.00
2022-08-02T22:28:37.849Z,23.90
2022-08-02T22:30:53.908Z,23.90
2022-08-02T22:33:46.676Z,23.80
2022-08-02T22:36:19.377Z,23.80
2022-08-02T22:38:55.071Z,23.80
2022-08-02T22:41:22.546Z,23.70
2022-08-02T22:43:49.686Z,23.70
2022-08-02T22:46:16.883Z,23.60
2022-08-02T22:51:31.817Z,23.60
2022-08-02T22:53:59.072Z,23.50
2022-08-02T22:56:26.004Z,23.50
2022-08-02T23:01:39.803Z,23.40
2022-08-02T23:04:06.722Z,23.40
2022-08-02T23:06:33.615Z,23.30
2022-08-02T23:09:00.486Z,23.30
2022-08-02T23:11:27.409Z,23.20
2022-08-02T23:13:54.272Z,23.20
2022-08-02T23:16:40.020Z,23.20
2022-08-02T23:19:25.558Z,23.10
2022-08-02T23:22:02.465Z,23.10
2022-08-02T23:24:33.440Z,23.10
2022-08-02T23:27:01.337Z,23.00
2022-08-02T23:29:28.323Z,23.00
2022-08-02T23:31:55.297Z,22.90
2022-08-02T23:34:22.211Z,22.90
2022-08-02T23:36:49.088Z,22.90
2022-08-02T23:39:15.977Z,22.80
2022-08-02T23:41:42.937Z,22.80
2022-08-02T23:44:14.511Z,22.70
2022-08-02T23:46:46.729Z,22.70
2022-08-02T23:49:15.917Z,22.70
2022-08-02T23:51:43.348Z,22.60
2022-08-02T23:54:11.550Z,22.60
2022-08-02T23:56:39.586Z,22.60
2022-08-02T23:59:08.204Z,22.50
